Airfield :
LOGIN :

Register | Disclaimer

   EN    FR    IT 

 










Legend :    VFR   Marginal VFR   IFR   Intensive IFR   Very Intensive IFR
Visi :
Ceiling :
>= 8 km
>= 3000ft
5 to 8 km
1000 to 3000 ft
1500m to 5 km
500 to 1000 ft
800 to 1500m
200 to 500 ft
< 800m
< 200 ft
Symbols :   Thunderstorms  Fog  Heavy snow  Heavy precipitations  Wind > 20 kt
SIGMETs :     Misc.  Thunderstorms  Icing  Turbulence  Mountain Waves  Volcanic Ashes






- Airport Elevation : -11 ft
- IATA code : AMS


EHAM - Amsterdam Schiphol

CURRENT METAR :
  • 050755Z 17005KT 7000 -DZRA FEW006 SCT016 BKN032 04/03 Q0998 BECMG 9999 BKN016

EXPIRED METARs :
  • 050725Z 16007KT 8000 -DZ FEW006 SCT016 BKN025 04/03 Q0997 BECMG BKN016
  • 050655Z 15006KT 9999 FEW007 SCT016 BKN030 04/03 Q0997 NOSIG
  • 050625Z 19008KT 9999 FEW008 BKN030 04/03 Q0997 NOSIG
  • 050555Z 19007KT 9999 FEW009 BKN033 04/03 Q0996 NOSIG
  • 050525Z 20010KT 170V230 9999 SCT009 BKN032 04/03 Q0996 NOSIG

TAF TAF EHAM
Valid from the 05 at 06:00 until the 06 at 12:00 UTC


050503Z 0506/0612 18010KT 9999 SCT010 BKN015
PROB30 0506/0518 7000 -DZ SCT008 OVC010
BECMG 0513/0515 08007KT
BECMG 0604/0606 12005KT 4000 BR SCT015
PROB30 0608/0612 0800 FG BKN002



MET'MAP, your aeronautical weather chart ! - Copyright ORBIFLY December 2007 - Disclaimer

ORBIFLY MET'MAP TEAM :

Programming & Development : Alexandra Zaïnal
Concept & original design : Baudouin d'Aumeries
Assistance for programming : Marc-Olivier Méhu
Technical & hardware support : Manuel Goepfert

Contact : metmap@orbifly.com




SOURCES & CREDITS :

   NOAA